Time;durP1;ratioP1;P1;durP2;ratioP2;P2;SDS_P1;SDS_P2;PMS_P1;PMS_P2;Temp;Humidity;BMP_temperature;BMP_pressure;BME280_temperature;BME280_humidity;BME280_pressure;Samples;Min_cycle;Max_cycle;Signal;HPM_P1;HPM_P2
2022/08/22 00:00:19;;;;;;;10.57;4.10;;;17.80;95.50;;;;;;5049154;28;20048;-84
2022/08/22 00:03:08;;;;;;;10.45;3.65;;;17.70;95.70;;;;;;5059260;28;20060;-85
2022/08/22 00:05:57;;;;;;;14.77;4.32;;;17.60;95.80;;;;;;5057837;28;20057;-84
2022/08/22 00:08:59;;;;;;;10.20;3.67;;;17.50;95.90;;;;;;5049933;28;20377;-84
2022/08/22 00:11:40;;;;;;;17.00;4.47;;;17.50;96.20;;;;;;5048233;28;20061;-84
2022/08/22 00:14:18;;;;;;;8.90;3.70;;;17.40;96.20;;;;;;5032993;28;20547;-84
2022/08/22 00:16:59;;;;;;;9.13;4.00;;;17.40;96.40;;;;;;5054351;28;20376;-85
2022/08/22 00:19:56;;;;;;;15.13;4.68;;;17.30;96.40;;;;;;5045837;28;20065;-85
2022/08/22 00:22:42;;;;;;;5.95;2.58;;;17.30;96.60;;;;;;5046727;28;20089;-84
2022/08/22 00:25:18;;;;;;;24.50;4.85;;;17.30;96.50;;;;;;5040995;28;20049;-87
2022/08/22 00:28:20;;;;;;;6.95;4.00;;;17.40;96.40;;;;;;5039148;28;20048;-85
2022/08/22 00:31:01;;;;;;;14.32;4.40;;;17.30;96.60;;;;;;5033849;28;20419;-87
2022/08/22 00:33:47;;;;;;;13.48;3.10;;;17.30;96.50;;;;;;5064408;28;20037;-85
2022/08/22 00:36:29;;;;;;;13.13;3.78;;;17.30;96.60;;;;;;5034436;28;20076;-86
2022/08/22 00:39:20;;;;;;;9.02;3.53;;;17.30;96.60;;;;;;5085807;28;20049;-86
2022/08/22 00:42:25;;;;;;;8.18;3.28;;;17.30;96.70;;;;;;5017764;28;20048;-85
2022/08/22 00:45:41;;;;;;;10.60;3.33;;;17.20;96.90;;;;;;5048229;28;20598;-86
2022/08/22 00:48:20;;;;;;;12.95;5.32;;;17.20;97.10;;;;;;5045161;28;20060;-85
2022/08/22 00:51:19;;;;;;;19.73;3.28;;;17.20;97.00;;;;;;5044306;28;20044;-85
2022/08/22 00:54:18;;;;;;;15.05;5.30;;;17.20;97.20;;;;;;5052948;28;20064;-85
2022/08/22 00:57:15;;;;;;;10.38;3.17;;;17.20;97.00;;;;;;5051618;28;20057;-85
2022/08/22 01:00:12;;;;;;;12.55;4.43;;;17.10;97.10;;;;;;5051592;28;20052;-86
2022/08/22 01:02:56;;;;;;;11.80;3.20;;;17.10;97.20;;;;;;5042855;28;20055;-85
2022/08/22 01:06:03;;;;;;;15.52;4.05;;;17.10;97.20;;;;;;5051563;28;20048;-85
2022/08/22 01:08:53;;;;;;;13.60;4.68;;;17.10;97.40;;;;;;5028434;28;20216;-86
2022/08/22 01:11:32;;;;;;;14.68;4.32;;;17.00;97.30;;;;;;5045033;28;20060;-86
2022/08/22 01:14:25;;;;;;;19.25;5.15;;;17.00;97.40;;;;;;5059097;28;20057;-85
2022/08/22 01:17:23;;;;;;;7.95;3.83;;;17.00;97.60;;;;;;5063172;28;20049;-86
2022/08/22 01:20:04;;;;;;;9.80;3.20;;;17.00;97.70;;;;;;5066253;28;20044;-85
2022/08/22 01:22:54;;;;;;;13.40;3.83;;;16.90;97.60;;;;;;5037619;28;20051;-85
2022/08/22 01:25:59;;;;;;;15.07;3.85;;;16.90;97.80;;;;;;5042380;28;20054;-85
2022/08/22 01:28:49;;;;;;;9.32;2.92;;;16.90;97.80;;;;;;5055690;28;20049;-85
2022/08/22 01:31:39;;;;;;;8.02;3.70;;;16.90;97.90;;;;;;5034488;28;20049;-85
2022/08/22 01:34:25;;;;;;;10.70;5.00;;;16.80;97.80;;;;;;5053679;28;20049;-85
2022/08/22 01:37:10;;;;;;;12.50;5.18;;;16.80;97.80;;;;;;5053334;28;20044;-85
2022/08/22 01:40:04;;;;;;;12.40;8.02;;;16.80;97.90;;;;;;5050871;28;20507;-86
2022/08/22 01:42:53;;;;;;;12.35;3.88;;;16.70;98.10;;;;;;5050785;28;20365;-86
2022/08/22 01:45:47;;;;;;;16.75;6.28;;;16.70;98.20;;;;;;5036914;28;20056;-85
2022/08/22 01:48:39;;;;;;;11.97;3.53;;;16.60;98.40;;;;;;4681990;28;10000554;-84
2022/08/22 01:51:50;;;;;;;12.07;3.35;;;16.60;98.30;;;;;;5043599;28;20037;-85
2022/08/22 01:54:43;;;;;;;14.30;3.58;;;16.60;98.40;;;;;;5051974;28;20064;-86
2022/08/22 01:57:12;;;;;;;15.02;3.95;;;16.60;98.40;;;;;;5054252;28;20487;-85
2022/08/22 01:59:44;;;;;;;11.02;3.50;;;16.60;98.40;;;;;;5053218;28;20068;-85
2022/08/22 02:02:55;;;;;;;15.50;3.30;;;16.60;98.50;;;;;;5052417;28;20060;-84
2022/08/22 02:05:50;;;;;;;8.15;3.15;;;16.60;98.60;;;;;;5051495;28;20045;-85
2022/08/22 02:08:51;;;;;;;10.02;3.60;;;16.60;98.60;;;;;;5053678;28;20045;-86
2022/08/22 02:11:31;;;;;;;8.15;4.38;;;16.60;98.60;;;;;;5043376;28;20037;-85
2022/08/22 02:14:12;;;;;;;16.05;4.18;;;16.60;98.60;;;;;;5054156;28;20049;-85
2022/08/22 02:16:46;;;;;;;12.85;4.82;;;16.60;98.60;;;;;;5033218;28;20496;-85
2022/08/22 02:19:14;;;;;;;14.52;5.40;;;16.60;98.60;;;;;;5055553;28;20332;-84
2022/08/22 02:22:00;;;;;;;14.02;4.18;;;16.60;98.60;;;;;;5059234;28;20056;-85
2022/08/22 02:24:58;;;;;;;16.95;3.65;;;16.60;98.60;;;;;;5060281;28;20045;-85
2022/08/22 02:27:56;;;;;;;10.88;3.92;;;16.60;98.70;;;;;;5053333;28;20049;-85
2022/08/22 02:30:42;;;;;;;6.35;2.83;;;16.60;98.70;;;;;;5062223;28;20067;-85
2022/08/22 02:33:21;;;;;;;9.50;3.22;;;16.60;98.70;;;;;;5052791;28;20049;-85
2022/08/22 02:36:06;;;;;;;11.38;5.10;;;16.50;98.70;;;;;;5032305;28;20053;-85
2022/08/22 02:38:48;;;;;;;10.40;3.67;;;16.40;98.80;;;;;;5032095;28;20052;-84
2022/08/22 02:41:55;;;;;;;12.10;3.15;;;16.40;99.00;;;;;;5051132;28;20057;-85
2022/08/22 02:44:32;;;;;;;11.60;4.70;;;16.30;99.20;;;;;;5051241;28;20037;-85
2022/08/22 02:47:08;;;;;;;9.38;3.65;;;16.30;99.20;;;;;;5051791;28;20045;-85
2022/08/22 02:49:41;;;;;;;14.75;4.00;;;16.30;99.20;;;;;;5035209;28;20052;-84
2022/08/22 02:52:40;;;;;;;11.65;3.92;;;16.30;99.20;;;;;;5045606;28;20045;-85
2022/08/22 02:55:28;;;;;;;8.55;3.53;;;16.30;99.30;;;;;;5062333;28;20053;-84
2022/08/22 02:58:10;;;;;;;12.80;4.13;;;16.30;99.30;;;;;;5060110;28;20065;-86
2022/08/22 03:00:44;;;;;;;13.52;5.45;;;16.30;99.30;;;;;;5061807;28;20507;-85
2022/08/22 03:03:27;;;;;;;13.82;4.85;;;16.30;99.30;;;;;;5044694;28;20238;-85
2022/08/22 03:06:00;;;;;;;12.13;3.60;;;16.20;99.30;;;;;;5042836;28;20068;-84
2022/08/22 03:08:34;;;;;;;15.38;4.75;;;16.20;99.40;;;;;;5036830;28;20057;-85
2022/08/22 03:11:02;;;;;;;11.02;3.92;;;16.20;99.40;;;;;;5053859;28;20048;-85
2022/08/22 03:13:36;;;;;;;9.25;3.67;;;16.10;99.50;;;;;;5053671;28;20064;-85
2022/08/22 03:16:43;;;;;;;13.48;4.78;;;16.10;99.60;;;;;;5054428;28;20037;-85
2022/08/22 03:19:20;;;;;;;9.23;3.53;;;16.00;99.80;;;;;;5053534;28;20044;-85
2022/08/22 03:22:27;;;;;;;9.15;3.58;;;15.90;99.90;;;;;;5036742;28;20057;-85
2022/08/22 03:25:17;;;;;;;12.23;3.70;;;15.80;99.90;;;;;;5022704;28;20055;-85
2022/08/22 03:27:54;;;;;;;10.65;3.90;;;15.80;99.90;;;;;;5053371;28;20057;-85
2022/08/22 03:30:39;;;;;;;12.65;3.40;;;15.70;99.90;;;;;;5051728;28;20056;-85
2022/08/22 03:33:23;;;;;;;11.50;4.53;;;15.60;99.90;;;;;;5047832;28;20052;-85
2022/08/22 03:36:05;;;;;;;10.80;3.80;;;15.60;99.90;;;;;;5032822;28;20053;-84
2022/08/22 03:38:33;;;;;;;9.85;3.72;;;15.70;99.90;;;;;;5048038;28;20046;-85
2022/08/22 03:41:37;;;;;;;12.63;4.05;;;15.60;99.90;;;;;;5041739;28;20074;-85
2022/08/22 03:44:31;;;;;;;8.27;3.10;;;15.60;99.90;;;;;;5038524;28;20049;-85
2022/08/22 03:47:18;;;;;;;9.60;4.10;;;15.50;99.90;;;;;;5048541;28;20377;-85
2022/08/22 03:50:23;;;;;;;6.22;3.88;;;15.50;99.90;;;;;;5048482;28;20064;-85
2022/08/22 03:53:17;;;;;;;10.57;3.75;;;15.40;99.90;;;;;;5048553;28;20503;-84
2022/08/22 03:56:22;;;;;;;10.88;4.13;;;15.50;99.90;;;;;;5037046;28;20559;-85
2022/08/22 03:59:04;;;;;;;11.93;4.57;;;15.40;99.90;;;;;;5048342;28;20048;-86
2022/08/22 04:02:04;;;;;;;12.43;4.88;;;15.40;99.90;;;;;;5048225;28;20045;-84
2022/08/22 04:05:16;;;;;;;11.75;3.10;;;15.30;99.90;;;;;;5053077;28;20056;-85
2022/08/22 04:07:53;;;;;;;12.77;3.72;;;15.30;99.90;;;;;;5035636;28;20933;-84
2022/08/22 04:10:30;;;;;;;21.70;5.10;;;15.30;99.90;;;;;;5051966;28;20518;-85
2022/08/22 04:12:58;;;;;;;15.13;4.25;;;15.20;99.90;;;;;;5036374;28;20044;-85
2022/08/22 04:15:29;;;;;;;9.32;3.90;;;15.20;99.90;;;;;;5054204;28;20060;-84
2022/08/22 04:18:03;;;;;;;12.90;3.88;;;15.20;99.90;;;;;;5060870;28;20045;-85
2022/08/22 04:20:52;;;;;;;8.73;3.55;;;15.10;99.90;;;;;;5042197;28;20460;-85
2022/08/22 04:23:46;;;;;;;11.90;4.32;;;15.10;99.90;;;;;;5059100;28;20049;-85
2022/08/22 04:26:40;;;;;;;7.80;4.03;;;15.10;99.90;;;;;;5027643;28;20587;-85
2022/08/22 04:29:13;;;;;;;10.95;3.40;;;15.00;99.90;;;;;;5040669;28;20049;-85
2022/08/22 04:32:04;;;;;;;17.65;4.97;;;15.00;99.90;;;;;;5057001;28;20512;-85
2022/08/22 04:34:49;;;;;;;12.77;4.40;;;14.90;99.90;;;;;;5056483;28;20049;-85
2022/08/22 04:37:36;;;;;;;7.35;3.70;;;14.90;99.90;;;;;;5055971;28;20056;-86
2022/08/22 04:40:16;;;;;;;11.15;3.70;;;14.80;99.90;;;;;;5057344;28;20047;-86
2022/08/22 04:43:00;;;;;;;13.57;3.63;;;14.90;99.90;;;;;;5056289;28;20041;-84
2022/08/22 04:46:08;;;;;;;8.13;3.85;;;14.90;99.90;;;;;;5055957;28;20873;-84
2022/08/22 04:49:14;;;;;;;9.73;3.75;;;15.10;99.90;;;;;;5057783;28;20057;-86
2022/08/22 04:52:17;;;;;;;8.25;3.33;;;14.90;99.90;;;;;;5036096;28;20242;-84
2022/08/22 04:55:02;;;;;;;11.63;3.10;;;14.90;99.90;;;;;;5039140;28;20419;-86
2022/08/22 04:57:50;;;;;;;8.75;4.05;;;14.90;99.90;;;;;;5023454;28;20041;-86
2022/08/22 05:00:18;;;;;;;11.63;4.88;;;14.90;99.90;;;;;;5037578;28;20644;-86
2022/08/22 05:02:51;;;;;;;9.38;3.58;;;14.90;99.90;;;;;;5055584;28;20056;-86
2022/08/22 05:05:35;;;;;;;11.50;4.63;;;14.80;99.90;;;;;;5068895;28;20033;-87
2022/08/22 05:08:06;;;;;;;10.88;4.03;;;14.80;99.90;;;;;;5055915;28;20049;-86
2022/08/22 05:10:42;;;;;;;10.60;3.92;;;14.80;99.90;;;;;;5043027;28;20392;-86
2022/08/22 05:13:21;;;;;;;10.13;5.00;;;14.60;99.90;;;;;;5055858;28;20049;-84
2022/08/22 05:15:53;;;;;;;14.00;4.35;;;14.80;99.90;;;;;;5056225;28;20052;-87
2022/08/22 05:18:35;;;;;;;11.45;4.00;;;14.70;99.90;;;;;;5054945;28;20123;-86
2022/08/22 05:21:06;;;;;;;15.07;5.40;;;14.70;99.90;;;;;;5037099;28;20049;-86
2022/08/22 05:23:43;;;;;;;17.55;5.75;;;14.70;99.90;;;;;;5041127;28;20060;-86
2022/08/22 05:26:14;;;;;;;14.95;4.30;;;14.70;99.90;;;;;;5024452;28;20638;-86
2022/08/22 05:28:57;;;;;;;12.27;3.53;;;14.70;99.90;;;;;;5054974;28;20040;-87
2022/08/22 05:31:30;;;;;;;17.42;4.53;;;14.70;99.90;;;;;;5043787;28;20040;-87
2022/08/22 05:34:04;;;;;;;13.07;4.38;;;14.80;99.90;;;;;;5034918;28;20060;-86
2022/08/22 05:36:44;;;;;;;11.15;4.10;;;14.80;99.90;;;;;;5053531;28;20056;-86
2022/08/22 05:39:22;;;;;;;11.85;4.90;;;14.80;99.90;;;;;;5048175;28;20057;-87
2022/08/22 05:41:59;;;;;;;13.73;4.53;;;14.90;99.90;;;;;;5051365;28;20052;-85
2022/08/22 05:44:33;;;;;;;11.15;4.20;;;14.90;99.90;;;;;;5050311;28;20373;-86
2022/08/22 05:47:22;;;;;;;7.55;4.13;;;14.90;99.90;;;;;;5050453;28;20052;-86
2022/08/22 05:50:06;;;;;;;13.68;4.72;;;15.00;99.90;;;;;;5033240;28;20053;-83
2022/08/22 05:52:56;;;;;;;14.52;4.70;;;15.00;99.90;;;;;;5036201;28;20056;-86
2022/08/22 05:55:24;;;;;;;14.95;4.68;;;15.10;99.90;;;;;;5022410;28;20499;-86
2022/08/22 05:58:08;;;;;;;16.27;5.25;;;15.10;99.90;;;;;;5056482;28;20060;-86
2022/08/22 06:00:42;;;;;;;13.52;3.92;;;15.20;99.90;;;;;;5055774;28;20045;-86
2022/08/22 06:03:24;;;;;;;13.00;4.85;;;15.20;99.90;;;;;;5035634;28;20056;-87
2022/08/22 06:05:57;;;;;;;15.30;8.05;;;15.30;99.90;;;;;;5032403;28;20049;-86
2022/08/22 06:08:46;;;;;;;10.98;4.75;;;15.30;99.90;;;;;;5043702;28;20045;-84
2022/08/22 06:11:25;;;;;;;12.70;5.40;;;15.40;99.90;;;;;;5044067;28;20059;-85
2022/08/22 06:14:06;;;;;;;22.95;7.07;;;15.40;99.90;;;;;;5046686;28;20052;-85
2022/08/22 06:16:47;;;;;;;10.45;5.72;;;15.50;99.90;;;;;;5068010;28;20067;-86
2022/08/22 06:19:18;;;;;;;13.60;4.93;;;15.50;99.90;;;;;;5065973;28;20044;-86
2022/08/22 06:21:52;;;;;;;11.88;5.05;;;15.60;99.90;;;;;;5026033;28;20075;-84
2022/08/22 06:24:24;;;;;;;14.20;5.30;;;15.70;99.90;;;;;;5058329;28;20048;-87
2022/08/22 06:27:00;;;;;;;18.17;5.93;;;15.80;99.90;;;;;;5063420;28;20049;-86
2022/08/22 06:29:34;;;;;;;9.38;4.75;;;15.80;99.90;;;;;;5060713;28;20131;-86
2022/08/22 06:32:21;;;;;;;10.25;3.80;;;15.90;99.90;;;;;;5023868;28;20051;-87
2022/08/22 06:35:25;;;;;;;16.65;5.45;;;16.00;99.90;;;;;;5034656;28;20041;-86
2022/08/22 06:37:58;;;;;;;13.15;4.55;;;16.10;99.90;;;;;;5047043;28;20542;-85
2022/08/22 06:40:27;;;;;;;10.52;4.35;;;16.20;99.90;;;;;;5047059;28;20722;-85
2022/08/22 06:42:57;;;;;;;16.52;4.45;;;16.30;99.90;;;;;;5048733;28;20041;-85
2022/08/22 06:45:29;;;;;;;10.40;4.00;;;16.30;99.90;;;;;;5047094;28;20408;-84
2022/08/22 06:48:22;;;;;;;10.57;4.25;;;16.50;99.90;;;;;;5048860;28;20045;-83
2022/08/22 06:50:57;;;;;;;11.27;5.18;;;16.50;99.90;;;;;;5040659;28;20045;-85
2022/08/22 06:53:33;;;;;;;9.02;4.32;;;16.60;99.90;;;;;;5046264;28;20048;-84
2022/08/22 06:56:04;;;;;;;8.73;4.05;;;16.80;99.90;;;;;;5044958;28;20136;-84
2022/08/22 06:58:35;;;;;;;;;;;16.80;99.90;;;;;;5046138;28;20483;-84
2022/08/22 07:01:11;;;;;;;7.60;4.05;;;16.90;99.90;;;;;;5047604;28;20311;-84
2022/08/22 07:03:49;;;;;;;17.38;4.65;;;17.00;99.90;;;;;;5043497;28;20052;-84
2022/08/22 07:06:41;;;;;;;15.10;3.95;;;17.10;99.90;;;;;;5045466;28;20053;-84
2022/08/22 07:09:23;;;;;;;21.92;4.80;;;17.20;99.90;;;;;;5029040;28;20033;-84
2022/08/22 07:11:53;;;;;;;13.07;3.15;;;17.30;99.90;;;;;;5047961;28;20044;-84
2022/08/22 07:14:39;;;;;;;12.95;2.80;;;17.40;99.90;;;;;;5045707;28;20506;-84
2022/08/22 07:17:14;;;;;;;12.75;2.65;;;17.60;99.90;;;;;;5045987;28;20515;-84
2022/08/22 07:20:14;;;;;;;7.38;2.85;;;17.70;99.90;;;;;;5046413;28;20063;-83
2022/08/22 07:22:56;;;;;;;14.27;5.30;;;17.70;99.90;;;;;;5023571;28;20072;-84
2022/08/22 07:25:25;;;;;;;10.65;3.00;;;17.80;99.90;;;;;;5047295;28;20508;-83
2022/08/22 07:27:59;;;;;;;8.18;3.03;;;17.90;99.90;;;;;;5044557;28;20108;-84
2022/08/22 07:30:48;;;;;;;8.00;2.67;;;18.00;99.80;;;;;;5043927;28;20049;-84
2022/08/22 07:33:41;;;;;;;11.35;3.40;;;18.20;99.60;;;;;;5027210;28;20515;-84
2022/08/22 07:36:42;;;;;;;8.05;3.00;;;18.20;99.30;;;;;;5045159;28;20041;-84
2022/08/22 07:39:24;;;;;;;8.23;2.53;;;18.40;99.20;;;;;;5044914;28;20504;-83
2022/08/22 07:42:20;;;;;;;10.43;3.05;;;18.50;99.10;;;;;;5078493;28;20057;-83
2022/08/22 07:45:07;;;;;;;7.65;3.42;;;18.60;98.90;;;;;;5074928;28;20515;-83
2022/08/22 07:47:38;;;;;;;3.92;2.10;;;18.60;98.60;;;;;;5045733;28;20048;-82
2022/08/22 07:50:11;;;;;;;14.10;3.20;;;18.70;98.10;;;;;;5047110;28;20057;-83
2022/08/22 07:52:43;;;;;;;9.57;2.72;;;18.80;98.30;;;;;;5076796;28;20049;-83
2022/08/22 07:55:17;;;;;;;12.25;3.20;;;18.90;98.20;;;;;;5062798;28;20056;-82
2022/08/22 07:57:53;;;;;;;12.13;3.50;;;18.90;97.80;;;;;;5045557;28;20044;-82
2022/08/22 08:00:24;;;;;;;12.50;2.88;;;19.10;97.80;;;;;;5044041;28;20068;-83
2022/08/22 08:02:57;;;;;;;12.25;2.60;;;19.10;97.50;;;;;;5040310;28;20049;-83
2022/08/22 08:05:28;;;;;;;12.65;2.75;;;19.20;97.20;;;;;;5061409;28;20049;-82
2022/08/22 08:07:56;;;;;;;6.03;2.67;;;19.30;97.30;;;;;;5046489;28;20060;-83
2022/08/22 08:10:30;;;;;;;10.18;4.45;;;19.30;97.20;;;;;;5048167;28;20057;-85
2022/08/22 08:13:02;;;;;;;8.48;2.28;;;19.40;96.80;;;;;;5045623;28;20099;-84
2022/08/22 08:15:34;;;;;;;10.27;2.67;;;19.50;96.80;;;;;;5029660;28;20044;-83
2022/08/22 08:18:12;;;;;;;9.52;2.75;;;19.60;96.70;;;;;;5027691;28;20059;-82
2022/08/22 08:20:41;;;;;;;7.53;2.72;;;19.60;96.50;;;;;;5056185;28;20053;-82
2022/08/22 08:23:10;;;;;;;10.93;4.93;;;19.70;96.40;;;;;;5040631;28;20049;-83
2022/08/22 08:26:07;;;;;;;6.70;2.55;;;19.80;96.20;;;;;;5056985;28;20069;-84
2022/08/22 08:28:48;;;;;;;8.35;2.45;;;19.80;95.60;;;;;;5056987;28;20056;-85
2022/08/22 08:31:32;;;;;;;11.90;2.50;;;19.90;95.40;;;;;;5040753;28;20052;-83
2022/08/22 08:34:06;;;;;;;10.95;2.30;;;20.00;95.30;;;;;;5024294;28;20068;-82
2022/08/22 08:36:37;;;;;;;8.38;2.67;;;20.10;94.70;;;;;;5042264;28;20044;-83
2022/08/22 08:39:26;;;;;;;14.27;2.35;;;20.10;94.70;;;;;;5039692;28;20464;-83
2022/08/22 08:42:28;;;;;;;8.27;2.45;;;20.20;94.60;;;;;;5025581;28;20044;-82
2022/08/22 08:45:15;;;;;;;9.20;2.42;;;20.20;94.10;;;;;;5022464;28;20462;-86
2022/08/22 08:47:52;;;;;;;8.68;3.13;;;20.30;93.70;;;;;;5022663;28;20049;-83
2022/08/22 08:50:38;;;;;;;6.80;2.35;;;20.30;93.40;;;;;;5024741;28;21313;-84
2022/08/22 08:53:15;;;;;;;7.85;2.10;;;20.40;93.00;;;;;;5055971;28;20053;-86
2022/08/22 08:55:57;;;;;;;12.93;3.13;;;20.50;93.20;;;;;;5040870;28;20052;-86
2022/08/22 08:58:36;;;;;;;10.25;3.45;;;20.60;93.10;;;;;;5042817;28;20060;-84
2022/08/22 09:01:19;;;;;;;15.75;3.42;;;20.60;93.50;;;;;;5025266;28;20060;-85
2022/08/22 09:04:28;;;;;;;11.55;2.25;;;20.70;92.80;;;;;;5053996;28;20335;-84
2022/08/22 09:07:34;;;;;;;6.72;2.83;;;20.80;93.00;;;;;;5037491;28;20045;-85
2022/08/22 09:10:21;;;;;;;6.63;2.83;;;21.00;92.90;;;;;;5040700;28;20052;-84
2022/08/22 09:13:25;;;;;;;14.63;2.72;;;21.10;93.00;;;;;;5044430;28;20059;-82
2022/08/22 09:16:18;;;;;;;11.75;3.45;;;21.30;92.80;;;;;;5042668;28;20720;-86
2022/08/22 09:19:14;;;;;;;7.70;1.75;;;21.40;92.40;;;;;;5044216;28;20195;-84
2022/08/22 09:21:54;;;;;;;9.00;2.50;;;21.50;92.20;;;;;;5062388;28;20534;-84
2022/08/22 09:24:42;;;;;;;9.40;2.20;;;21.40;92.30;;;;;;5063390;28;20500;-84
2022/08/22 09:27:33;;;;;;;8.23;2.92;;;21.40;92.00;;;;;;5049785;28;20209;-84
2022/08/22 09:30:08;;;;;;;7.80;1.90;;;21.30;92.40;;;;;;5049117;28;20045;-83
2022/08/22 09:32:42;;;;;;;8.32;2.80;;;21.40;92.60;;;;;;5065249;28;20056;-84
2022/08/22 09:35:26;;;;;;;9.00;1.85;;;21.40;92.60;;;;;;5046316;28;20044;-86
2022/08/22 09:38:17;;;;;;;14.73;2.97;;;21.40;92.40;;;;;;5060779;28;20061;-84
2022/08/22 09:41:26;;;;;;;15.02;3.25;;;21.50;92.40;;;;;;5060175;28;20060;-83
2022/08/22 09:44:06;;;;;;;6.20;2.33;;;21.60;92.20;;;;;;5026109;28;20057;-85
2022/08/22 09:46:48;;;;;;;10.63;4.25;;;21.60;92.30;;;;;;5043878;28;20566;-84
2022/08/22 09:49:31;;;;;;;5.25;1.52;;;21.80;91.90;;;;;;5043061;28;20029;-86
2022/08/22 09:52:43;;;;;;;9.75;2.63;;;21.90;91.80;;;;;;5042350;28;20052;-84
2022/08/22 09:55:43;;;;;;;;;;;22.00;91.50;;;;;;5059819;28;20053;-86
2022/08/22 09:58:40;;;;;;;12.50;2.10;;;22.10;91.10;;;;;;5041913;28;19925;-88
2022/08/22 10:01:17;;;;;;;5.72;1.67;;;22.20;91.40;;;;;;5010181;28;20212;-87
2022/08/22 10:04:07;;;;;;;6.63;1.60;;;22.30;90.90;;;;;;5044354;28;20585;-86
2022/08/22 10:06:49;;;;;;;12.45;2.67;;;22.40;90.20;;;;;;5048023;28;20041;-86
2022/08/22 10:09:20;;;;;;;8.88;2.55;;;22.40;90.30;;;;;;5047292;28;20064;-86
2022/08/22 10:12:03;;;;;;;13.18;3.17;;;22.40;90.40;;;;;;5043758;28;20557;-86
2022/08/22 10:15:20;;;;;;;11.48;2.15;;;22.60;90.50;;;;;;5041624;28;20041;-86
2022/08/22 10:18:03;;;;;;;12.05;2.22;;;22.80;90.50;;;;;;5061035;28;20049;-86
2022/08/22 10:20:45;;;;;;;14.43;2.63;;;22.90;90.70;;;;;;5043876;28;20040;-85
2022/08/22 10:23:32;;;;;;;9.30;2.10;;;23.10;90.50;;;;;;5043859;28;20045;-86
2022/08/22 10:26:29;;;;;;;5.47;2.08;;;23.30;90.40;;;;;;5043843;28;20895;-87
2022/08/22 10:29:33;;;;;;;13.35;2.22;;;23.40;90.30;;;;;;5043544;28;20053;-87
2022/08/22 10:32:30;;;;;;;9.35;2.50;;;23.40;90.10;;;;;;5060813;28;20048;-87
2022/08/22 10:35:09;;;;;;;6.22;1.98;;;23.40;90.10;;;;;;5043678;28;20052;-88
2022/08/22 10:38:07;;;;;;;9.38;2.40;;;23.40;90.30;;;;;;5041843;28;20045;-86
2022/08/22 10:41:01;;;;;;;7.45;1.40;;;23.40;90.30;;;;;;5042552;28;20045;-87
2022/08/22 10:43:50;;;;;;;6.55;2.03;;;23.50;90.40;;;;;;5041772;28;20041;-87
2022/08/22 10:46:53;;;;;;;3.60;1.95;;;23.60;90.30;;;;;;5042117;28;20048;-86
2022/08/22 10:49:38;;;;;;;6.53;1.08;;;23.70;90.20;;;;;;5041959;28;20033;-86
2022/08/22 10:52:22;;;;;;;6.25;1.20;;;23.80;90.00;;;;;;5042923;28;20036;-86
2022/08/22 10:54:55;;;;;;;3.63;1.00;;;23.80;89.90;;;;;;5040740;28;20045;-85
2022/08/22 10:57:37;;;;;;;5.53;1.17;;;23.80;90.00;;;;;;5058400;28;20041;-86
2022/08/22 11:00:27;;;;;;;6.88;1.40;;;23.70;90.10;;;;;;5042833;28;20033;-86
2022/08/22 11:03:01;;;;;;;8.85;1.38;;;23.70;90.30;;;;;;5040365;28;20045;-86
2022/08/22 11:05:33;;;;;;;1.85;0.95;;;23.70;90.30;;;;;;5042615;28;20049;-86
2022/08/22 11:08:19;;;;;;;5.95;1.30;;;23.70;90.40;;;;;;5042145;28;20056;-86
2022/08/22 11:10:53;;;;;;;3.55;0.95;;;23.70;90.30;;;;;;5043524;28;20044;-85
2022/08/22 11:13:33;;;;;;;5.85;1.40;;;23.70;90.40;;;;;;5026110;28;20045;-86
2022/08/22 11:16:11;;;;;;;5.97;1.17;;;23.80;90.40;;;;;;5040051;28;20067;-86
2022/08/22 11:18:58;;;;;;;6.53;1.55;;;23.90;90.50;;;;;;5039812;28;20412;-86
2022/08/22 11:21:48;;;;;;;7.63;1.13;;;24.00;90.20;;;;;;5041284;28;20060;-85
2022/08/22 11:24:29;;;;;;;2.95;1.00;;;24.20;90.10;;;;;;5056486;28;20290;-85
2022/08/22 11:27:32;;;;;;;6.57;1.05;;;24.30;90.00;;;;;;5041420;28;20511;-86
2022/08/22 11:30:28;;;;;;;4.43;1.00;;;24.40;89.70;;;;;;5035702;28;20100;-85
2022/08/22 11:33:17;;;;;;;4.43;1.15;;;24.40;89.40;;;;;;5038158;28;20041;-86
2022/08/22 11:35:54;;;;;;;6.47;1.15;;;24.30;89.50;;;;;;5021581;28;20045;-87
2022/08/22 11:38:38;;;;;;;6.57;0.98;;;24.30;90.00;;;;;;5022571;28;20052;-85
2022/08/22 11:41:12;;;;;;;5.72;0.73;;;24.30;90.10;;;;;;5022879;28;20037;-85
2022/08/22 11:43:52;;;;;;;5.80;1.00;;;24.30;90.00;;;;;;5036134;28;20496;-85
2022/08/22 11:46:42;;;;;;;3.38;0.80;;;24.30;89.90;;;;;;5020586;28;20053;-86
2022/08/22 11:49:20;;;;;;;;;;;24.20;90.00;;;;;;5020248;28;20052;-86
2022/08/22 11:52:02;;;;;;;7.45;0.90;;;24.00;90.00;;;;;;5022780;28;20419;-86
2022/08/22 11:54:38;;;;;;;5.50;1.58;;;23.80;90.30;;;;;;5037338;28;20044;-86
2022/08/22 11:57:34;;;;;;;4.63;1.60;;;23.60;90.50;;;;;;5019459;28;20045;-87
2022/08/22 12:00:16;;;;;;;6.63;1.55;;;23.50;90.70;;;;;;5024120;28;20054;-86
2022/08/22 12:03:25;;;;;;;6.60;1.10;;;23.40;90.80;;;;;;5035077;28;20048;-85
2022/08/22 12:06:00;;;;;;;3.25;1.02;;;23.30;90.90;;;;;;5017780;28;20045;-86
2022/08/22 12:08:39;;;;;;;5.78;1.20;;;23.10;91.10;;;;;;5022374;28;20409;-86
2022/08/22 12:11:24;;;;;;;8.35;1.63;;;23.00;91.30;;;;;;5030101;28;20044;-85
2022/08/22 12:14:01;;;;;;;9.18;2.50;;;22.90;91.50;;;;;;5037927;28;20052;-85
2022/08/22 12:16:43;;;;;;;17.05;1.80;;;22.80;91.80;;;;;;5023864;28;20053;-89
2022/08/22 12:19:26;;;;;;;3.10;1.35;;;22.80;91.90;;;;;;5059496;28;20056;-87
2022/08/22 12:22:37;;;;;;;7.07;1.73;;;22.70;92.10;;;;;;5041820;28;20044;-87
2022/08/22 12:25:48;;;;;;;2.50;1.10;;;22.70;92.30;;;;;;5038767;28;20497;-87
2022/08/22 12:28:35;;;;;;;5.40;1.63;;;22.70;92.30;;;;;;5054899;28;20056;-87
2022/08/22 12:31:49;;;;;;;4.60;1.50;;;22.80;92.20;;;;;;5041147;28;20045;-87
2022/08/22 12:34:30;;;;;;;8.00;1.75;;;22.90;92.30;;;;;;5014665;28;20057;-86
2022/08/22 12:37:22;;;;;;;4.43;1.92;;;22.80;92.30;;;;;;5073737;28;20052;-88
2022/08/22 12:40:14;;;;;;;6.18;2.42;;;22.90;92.20;;;;;;5039738;28;20053;-89
2022/08/22 12:43:09;;;;;;;7.50;1.85;;;22.90;92.20;;;;;;5046468;28;20412;-87
2022/08/22 12:45:43;;;;;;;7.70;1.75;;;23.00;92.10;;;;;;5059452;28;20124;-86
2022/08/22 12:48:36;;;;;;;8.43;2.05;;;23.10;92.10;;;;;;5050566;28;20064;-88
2022/08/22 12:51:26;;;;;;;8.88;2.38;;;23.30;91.90;;;;;;5045396;28;20045;-87
2022/08/22 12:54:12;;;;;;;;;;;23.40;91.80;;;;;;5061637;28;20057;-88
2022/08/22 12:56:56;;;;;;;7.45;2.03;;;23.50;91.50;;;;;;5044985;28;19925;-88
2022/08/22 12:59:46;;;;;;;7.50;1.40;;;23.60;91.50;;;;;;5046027;28;20048;-88
2022/08/22 13:02:30;;;;;;;11.45;1.65;;;23.70;91.30;;;;;;5058688;28;20049;-87
2022/08/22 13:05:12;;;;;;;6.13;1.50;;;23.70;91.20;;;;;;5043843;28;20527;-88
2022/08/22 13:08:02;;;;;;;13.02;1.40;;;23.80;91.30;;;;;;5044772;28;20052;-88
2022/08/22 13:10:39;;;;;;;5.60;2.35;;;24.10;91.00;;;;;;5044232;28;20056;-89
2022/08/22 13:13:10;;;;;;;4.78;0.98;;;24.20;90.90;;;;;;5044515;28;20522;-88
2022/08/22 13:15:53;;;;;;;5.95;1.10;;;24.40;90.70;;;;;;5065994;28;20056;-88
2022/08/22 13:18:29;;;;;;;5.15;1.30;;;24.60;90.40;;;;;;5047886;28;20056;-88
2022/08/22 13:21:04;;;;;;;4.03;0.90;;;24.80;90.30;;;;;;5054658;28;20438;-87
2022/08/22 13:23:40;;;;;;;5.45;1.10;;;25.00;90.00;;;;;;5048534;28;20052;-89
2022/08/22 13:26:21;;;;;;;5.85;1.58;;;25.10;89.50;;;;;;5048010;28;20053;-88
2022/08/22 13:29:05;;;;;;;4.68;0.98;;;25.20;88.60;;;;;;5053934;28;20037;-87
2022/08/22 13:31:59;;;;;;;2.92;1.20;;;25.20;88.80;;;;;;5050903;28;20079;-88
2022/08/22 13:35:07;;;;;;;5.03;0.90;;;25.20;89.00;;;;;;5062317;28;20044;-88
2022/08/22 13:38:11;;;;;;;5.00;0.80;;;25.00;88.50;;;;;;5048174;28;20045;-88
2022/08/22 13:40:45;;;;;;;5.28;1.25;;;24.90;89.00;;;;;;5026771;28;20049;-88
2022/08/22 13:43:20;;;;;;;2.80;0.85;;;24.80;89.30;;;;;;5048777;28;20037;-90
2022/08/22 13:45:55;;;;;;;4.72;1.25;;;24.70;89.50;;;;;;5030108;28;20052;-88
2022/08/22 13:48:45;;;;;;;6.50;2.25;;;24.60;89.70;;;;;;5039519;28;20049;-90
2022/08/22 13:51:35;;;;;;;2.13;1.10;;;24.60;89.90;;;;;;5043151;28;20057;-88
2022/08/22 13:54:14;;;;;;;;;;;24.60;89.90;;;;;;5027914;28;20060;-88
2022/08/22 13:57:07;;;;;;;9.60;1.55;;;24.60;89.70;;;;;;5043033;28;19936;-88
2022/08/22 14:00:01;;;;;;;7.53;1.20;;;24.60;90.00;;;;;;5059558;28;20059;-91
2022/08/22 14:02:54;;;;;;;1.98;0.90;;;24.60;89.70;;;;;;5044600;28;20075;-88
2022/08/22 14:05:33;;;;;;;3.08;0.88;;;24.60;89.70;;;;;;5044214;28;20504;-88
2022/08/22 14:08:21;;;;;;;4.40;1.70;;;24.50;90.00;;;;;;5027289;28;20045;-90
2022/08/22 14:11:06;;;;;;;3.40;2.42;;;24.40;89.70;;;;;;5042834;28;20308;-87
2022/08/22 14:13:58;;;;;;;3.53;1.55;;;24.30;90.00;;;;;;5058197;28;20060;-88